ADDS METAR Data INFO
IDs: Format: Raw Decoded Include TAF

Data at: 0330 UTC 19 Jul 2018

KEAR 190317Z AUTO 13015KT 10SM -TSRA FEW005 SCT016 BKN046 20/18 A2993 RMK AO2 WSHFT 0259 LTG DSNT ALQDS P0017
KEAR 190302Z AUTO 07020G41KT 3SM +TSRA BR FEW007 BKN025 OVC090 18/17 A2996 RMK AO2 WSHFT 0247 LTG DSNT ALQDS CIG 016V034 PRESRR P0007
KEAR 190257Z AUTO 06025G43KT 2SM +TSRA BR SCT009 BKN025 BKN047 19/17 A2995 RMK AO2 PK WND 04043/0252 WSHFT 0233 LTG DSNT ALQDS TSB03E18B19RAB45 SLP126 P0049 60049 T01940172 53006
KEAR 190253Z AUTO 05036G43KT 2SM +TSRA BR FEW007 BKN023 BKN090 22/20 A2993 RMK AO2 PK WND 04043/0252 WSHFT 0233 LTG DSNT N-SE TSB03E18B19RAB45 CIG 016V032 P0041
KEAR 190248Z AUTO 36027G35KT 4SM +TSRA FEW018 BKN029 BKN046 23/20 A2993 RMK AO2 PK WND 35035/0247 WSHFT 0233 LTG DSNT N-SE TSB03E18B19RAB45 P0014
KEAR 190244Z AUTO 33024G32KT 6SM TS HZ SCT029 SCT046 BKN090 24/20 A2993 RMK AO2 PK WND 33032/0240 WSHFT 0230 LTG DSNT ALQDS TSB03E18B19 PRESRR P0001
KEAR 190219Z AUTO 17015KT 9SM VCTS FEW033 SCT042 26/21 A2988 RMK AO2 LTG DSNT NW-NE TSB03E18B19
KEAR 190210Z AUTO 15010KT 10SM VCTS BKN038 BKN045 26/21 A2991 RMK AO2 LTG DSNT N AND NW TSB03
KEAR 190157Z AUTO 15010KT 10SM OVC036 26/21 A2990 RMK AO2 LTG DSNT N AND NW SLP107 T02610211
KEAR 190057Z AUTO 15008KT 10SM OVC041 27/22 A2991 RMK AO2 SLP109 T02720217
KEAR 182357Z AUTO 18009KT 10SM FEW035 28/21 A2993 RMK AO2 SLP114 T02830211 10294 20256 58021
KEAR 182257Z AUTO 15009KT 10SM FEW048 28/21 A2995 RMK AO2 SLP122 T02830206
KEAR 182157Z AUTO 17008KT 10SM FEW035 28/20 A2997 RMK AO2 SLP131 T02830200
KEAR 182057Z AUTO 10004KT 10SM FEW028 28/20 A2999 RMK AO2 SLP138 T02780200 58011
KEAR 181957Z AUTO 12006KT 10SM SCT026 27/20 A3001 RMK AO2 SLP143 T02720200
KEAR 181857Z AUTO 09005KT 10SM SCT024 26/20 A3002 RMK AO2 SLP146 T02610200
KEAR 181757Z AUTO 16007KT 10SM BKN020 26/20 A3003 RMK AO2 SLP150 T02610200 10261 20200 53001
KEAR 181722Z AUTO 17013KT 10SM OVC016 26/21 A3002 RMK AO2
KEAR 181707Z AUTO 17009KT 10SM BKN014 25/21 A3003 RMK AO2
KEAR 181657Z AUTO 16010KT 10SM SCT012 25/21 A3003 RMK AO2 SLP149 T02500206
KEAR 181651Z AUTO 15010KT 10SM SCT010 24/21 A3002 RMK AO2
KEAR 181633Z AUTO 13009KT 10SM BKN010 24/21 A3002 RMK AO2
KEAR 181557Z AUTO 16010KT 10SM OVC006 22/21 A3002 RMK AO2 CIG 005V010 SLP151 T02220206
KEAR 181521Z AUTO 15010KT 6SM BR OVC004 21/20 A3003 RMK AO2
KEAR 181457Z AUTO 14011KT 4SM BR OVC002 21/20 A3003 RMK AO2 SLP154 T02060200 58021
KEAR 181357Z AUTO 13007KT 4SM BR OVC002 20/19 A3007 RMK AO2 SLP166 T02000194
KEAR 181257Z AUTO 31004KT 3SM BR OVC002 21/19 A3010 RMK AO2 SLP176 T02060194
KEAR 181214Z AUTO 34003KT 4SM BR OVC002 20/19 A3010 RMK AO2
KEAR 181157Z AUTO 06003KT 2SM BR OVC002 20/19 A3010 RMK AO2 SLP174 70007 T02000194 10206 20194 51006
KEAR 181155Z AUTO 06003KT 2SM BR OVC002 20/19 A3010 RMK AO2
KEAR 181122Z AUTO 28004KT 4SM BR OVC002 20/19 A3011 RMK AO2
KEAR 181055Z AUTO 00000KT 2SM BR OVC002 19/19 A3011 RMK AO2 SLP177 T01940194
KEAR 181054Z AUTO 00000KT 2SM BR OVC002 19/19 A3011 RMK AO2
KEAR 181025Z AUTO 13005KT 1SM BR OVC002 19/19 A3009 RMK AO2
KEAR 181013Z AUTO 13005KT 1 1/4SM BR OVC002 19/19 A3008 RMK AO2
KEAR 181003Z AUTO 14008KT 3/4SM BR OVC002 19/19 A3008 RMK AO2
KEAR 180957Z AUTO 13007KT 1 1/4SM BR OVC002 19/19 A3008 RMK AO2 SLP168 T01940194
KEAR 180940Z AUTO 15008KT 1 1/4SM BR OVC002 19/19 A3008 RMK AO2
KEAR 180914Z AUTO 11006KT 1SM BR OVC002 20/19 A3007 RMK AO2
KEAR 180857Z AUTO 11005KT 1 1/2SM BR OVC002 20/19 A3007 RMK AO2 SLP165 T02000194 58002
KEAR 180852Z AUTO 11004KT 1 1/2SM BR OVC002 20/19 A3007 RMK AO2
KEAR 180832Z AUTO 12006KT 2 1/2SM BR OVC002 20/19 A3008 RMK AO2
KEAR 180757Z AUTO 12006KT 7SM OVC004 20/19 A3008 RMK AO2 SLP167 T02000194
KEAR 180755Z AUTO 14007KT 7SM OVC004 20/19 A3008 RMK AO2 CIG 003V006
KEAR 180740Z AUTO 11005KT 7SM BKN006 BKN036 20/19 A3008 RMK AO2
KEAR 180729Z AUTO 12005KT 9SM SCT006 BKN036 20/19 A3009 RMK AO2
KEAR 180657Z AUTO 13007KT 10SM SCT029 BKN036 21/19 A3010 RMK AO2 SLP175 T02060194
KEAR 180620Z AUTO 12006KT 10SM BKN027 BKN034 21/19 A3011 RMK AO2
KEAR 180557Z AUTO 12007KT 9SM FEW029 21/19 A3011 RMK AO2 SLP177 T02060194 10261 20206 402780206 51007
KEAR 180457Z AUTO 11008KT 8SM FEW018 SCT031 BKN040 21/20 A3010 RMK AO2 SLP175 T02110200
KEAR 180357Z AUTO 09005KT 10SM SCT016 21/19 A3011 RMK AO2 SLP177 T02110194
KEAR 180344Z AUTO 10003KT 10SM BKN018 21/20 A3010 RMK AO2
KEAR 180257Z AUTO 09005KT 10SM CLR 21/19 A3008 RMK AO2 SLP171 T02110194 53000
KEAR 180157Z AUTO 08005KT 10SM CLR 23/20 A3008 RMK AO2 SLP169 T02280200
KEAR 180057Z AUTO 07006KT 10SM CLR 26/20 A3008 RMK AO2 SLP168 T02560200
KEAR 172357Z AUTO 08007KT 10SM CLR 26/19 A3008 RMK AO2 SLP167 T02610194 10278 20244 57010
KEAR 172257Z AUTO 10010KT 10SM CLR 27/21 A3009 RMK AO2 SLP171 T02670206
KEAR 172157Z AUTO 11012KT 10SM SCT027 BKN085 27/21 A3010 RMK AO2 SLP174 T02720206
KEAR 172057Z AUTO 11008KT 10SM SCT028 27/20 A3012 RMK AO2 SLP178 T02720200 58000
KEAR 171923Z AUTO 07007KT 10SM SCT018 26/21 A3012 RMK AO2
KEAR 171857Z AUTO 07010KT 10SM BKN018 26/21 A3012 RMK AO2 SLP180 T02560211
KEAR 171757Z AUTO 09009KT 10SM SCT014 24/21 A3012 RMK AO2 SLP180 60007 T02440211 10261 20206 56003
KEAR 171755Z AUTO 10008KT 10SM SCT014 24/21 A3012 RMK AO2
KEAR 171733Z AUTO 09011KT 10SM BKN014 BKN037 24/21 A3012 RMK AO2
KEAR 171711Z AUTO 09012KT 10SM BKN016 25/22 A3012 RMK AO2
KEAR 171657Z AUTO 06014KT 10SM SCT016 26/22 A3012 RMK AO2 SLP179 T02610217
KEAR 171632Z AUTO 03011KT 10SM FEW010 24/21 A3012 RMK AO2
KEAR 171557Z AUTO 05006KT 10SM SCT010 BKN017 24/21 A3013 RMK AO2 SLP183 T02390211